Spruce Grove, Canada
Current Conditions -  °F | °C
As of 8:00 AM on Friday 28 Nov 2014 (Local Time) from CWSE Reporting Station
Light Snow Light Snow  
Wind Chill: -20°   Ceiling: Unl
Heat Index: -8°   Visibility: 2mi
Dew Point: -14°   Wind: 5mph
Humidity: 75%   Direction: 340°NNW
Pressure: 29.78"   Gusts: NA
Location:  53.54°N, 113.9°W
Report Text: CWSE 281500Z 34004KT 2SM -SN FEW039 OVC/// M22/M26 A2978 RMK SLP184 /S04/ T12241257 WSI/SWOB
Loading
Personal Weather Stations






























Interactive Weather Map New forecast layout! Learn more

10-Day Weather Forecast

Advertisements
Track Severe Weather on mobile